Time;durP1;ratioP1;P1;durP2;ratioP2;P2;SDS_P1;SDS_P2;PMS_P1;PMS_P2;Temp;Humidity;BMP_temperature;BMP_pressure;BME280_temperature;BME280_humidity;BME280_pressure;Samples;Min_cycle;Max_cycle;Signal;HPM_P1;HPM_P2
2021/03/27 00:02:35;;;;;;;101.68;30.83;;;6.00;78.80;;;;;;4948705;28;20134;-61
2021/03/27 00:05:15;;;;;;;116.35;37.25;;;6.00;78.90;;;;;;4952361;28;20078;-60
2021/03/27 00:08:06;;;;;;;145.88;41.35;;;6.00;79.00;;;;;;4949167;29;20422;-61
2021/03/27 00:10:54;;;;;;;132.77;40.38;;;5.90;79.20;;;;;;4948626;29;20055;-61
2021/03/27 00:13:34;;;;;;;123.40;38.10;;;5.90;79.30;;;;;;4955850;28;20055;-60
2021/03/27 00:16:24;;;;;;;120.85;37.88;;;5.80;79.40;;;;;;4958153;28;20059;-61
2021/03/27 00:18:57;;;;;;;94.50;34.42;;;5.80;79.40;;;;;;4948451;29;20214;-61
2021/03/27 00:21:42;;;;;;;102.93;33.47;;;5.80;79.60;;;;;;4948250;29;20047;-61
2021/03/27 00:24:09;;;;;;;89.65;29.88;;;5.80;79.30;;;;;;4940347;29;20047;-61
2021/03/27 00:26:42;;;;;;;80.03;27.80;;;5.70;79.70;;;;;;5014528;28;20088;-61
2021/03/27 00:29:19;;;;;;;85.88;29.52;;;5.70;79.60;;;;;;5028809;28;20504;-60
2021/03/27 00:31:51;;;;;;;69.38;25.77;;;5.70;79.30;;;;;;5010513;28;20045;-60
2021/03/27 00:34:22;;;;;;;71.93;24.77;;;5.60;79.30;;;;;;5018545;28;20489;-60
2021/03/27 00:36:56;;;;;;;69.68;25.35;;;5.60;80.10;;;;;;5026175;28;20064;-60
2021/03/27 00:39:29;;;;;;;62.10;23.60;;;5.60;79.60;;;;;;5005419;28;20504;-61
2021/03/27 00:42:00;;;;;;;63.28;21.38;;;5.50;79.70;;;;;;5018699;28;20068;-61
2021/03/27 00:44:39;;;;;;;63.65;23.65;;;5.50;80.30;;;;;;5030344;28;20037;-60
2021/03/27 00:47:10;;;;;;;62.55;22.73;;;5.50;80.70;;;;;;5008424;28;20046;-60
2021/03/27 00:49:46;;;;;;;64.97;22.65;;;5.40;79.70;;;;;;4995388;28;20480;-60
2021/03/27 00:52:17;;;;;;;60.40;23.13;;;5.40;80.80;;;;;;5022536;28;20396;-60
2021/03/27 00:55:02;;;;;;;69.07;22.55;;;5.40;81.00;;;;;;5024479;28;20041;-61
2021/03/27 00:57:32;;;;;;;66.15;22.88;;;5.40;80.90;;;;;;4993790;28;20064;-61
2021/03/27 01:00:32;;;;;;;68.78;23.33;;;5.40;80.70;;;;;;5030997;28;20037;-61
2021/03/27 01:03:29;;;;;;;56.17;21.58;;;5.40;81.00;;;;;;5004514;28;20091;-60
2021/03/27 01:06:18;;;;;;;59.72;22.05;;;5.30;81.00;;;;;;5029777;28;20064;-60
2021/03/27 01:09:05;;;;;;;63.38;22.70;;;5.30;80.60;;;;;;5014641;28;20061;-59
2021/03/27 01:11:40;;;;;;;64.25;22.70;;;5.30;81.50;;;;;;5006589;28;20100;-60
2021/03/27 01:14:16;;;;;;;63.13;23.45;;;5.30;81.70;;;;;;5002819;28;20136;-60
2021/03/27 01:16:50;;;;;;;64.22;22.05;;;5.20;81.90;;;;;;5033880;28;20537;-59
2021/03/27 01:19:28;;;;;;;56.13;21.90;;;5.20;82.40;;;;;;5035359;28;20465;-60
2021/03/27 01:21:56;;;;;;;66.55;22.00;;;5.20;82.00;;;;;;5026302;28;20407;-61
2021/03/27 01:24:28;;;;;;;57.75;21.25;;;5.20;82.00;;;;;;5029709;28;20037;-61
2021/03/27 01:27:01;;;;;;;62.53;23.85;;;5.10;81.80;;;;;;5007423;28;20049;-60
2021/03/27 01:29:27;;;;;;;;;;;5.10;81.70;;;;;;5033920;28;20041;-61
2021/03/27 01:32:21;;;;;;;54.40;20.02;;;5.10;82.40;;;;;;5021223;28;20434;-61
2021/03/27 01:35:14;;;;;;;58.40;21.85;;;5.00;82.20;;;;;;5014548;28;20074;-61
2021/03/27 01:37:43;;;;;;;61.88;19.65;;;5.00;83.10;;;;;;5012209;28;20046;-61
2021/03/27 01:40:37;;;;;;;60.38;22.17;;;5.00;83.20;;;;;;5011646;28;20088;-62
2021/03/27 01:43:16;;;;;;;55.80;20.13;;;4.90;82.10;;;;;;5014597;28;20104;-61
2021/03/27 01:46:04;;;;;;;55.55;20.10;;;4.90;83.20;;;;;;5016665;28;20053;-61
2021/03/27 01:49:01;;;;;;;53.72;20.23;;;4.90;83.60;;;;;;5015474;28;20057;-61
2021/03/27 01:51:42;;;;;;;55.28;19.50;;;4.80;83.70;;;;;;5031932;28;20038;-61
2021/03/27 01:54:11;;;;;;;51.72;18.67;;;4.80;83.90;;;;;;5013646;28;20060;-60
2021/03/27 01:56:45;;;;;;;50.45;19.92;;;4.80;84.40;;;;;;5034981;28;20053;-59
2021/03/27 01:59:25;;;;;;;58.70;19.23;;;4.80;84.00;;;;;;5051053;28;20051;-60
2021/03/27 02:02:06;;;;;;;48.53;17.60;;;4.80;84.60;;;;;;5052654;28;20412;-61
2021/03/27 02:04:51;;;;;;;48.38;18.48;;;4.70;85.30;;;;;;5051173;28;20087;-61
2021/03/27 02:07:24;;;;;;;44.30;16.73;;;4.70;84.80;;;;;;5047196;28;20033;-62
2021/03/27 02:10:03;;;;;;;49.20;17.27;;;4.70;85.10;;;;;;5049878;28;20029;-60
2021/03/27 02:13:13;;;;;;;53.05;19.00;;;4.70;85.00;;;;;;5032862;28;20044;-62
2021/03/27 02:16:03;;;;;;;50.65;17.50;;;4.70;84.70;;;;;;4989447;28;20592;-60
2021/03/27 02:18:54;;;;;;;47.35;17.33;;;4.70;85.00;;;;;;4974858;28;20054;-61
2021/03/27 02:21:33;;;;;;;49.97;18.10;;;4.70;85.60;;;;;;4992203;28;20049;-61
2021/03/27 02:24:37;;;;;;;52.88;18.08;;;4.60;85.40;;;;;;4973259;28;20128;-60
2021/03/27 02:27:27;;;;;;;53.65;18.05;;;4.70;85.30;;;;;;4989703;28;20524;-60
2021/03/27 02:30:09;;;;;;;54.40;18.27;;;4.70;85.50;;;;;;4978069;28;20094;-61
2021/03/27 02:32:47;;;;;;;48.72;18.02;;;4.60;85.30;;;;;;4988635;28;20050;-61
2021/03/27 02:35:22;;;;;;;53.70;16.52;;;4.70;85.00;;;;;;4988113;28;20050;-61
2021/03/27 02:38:25;;;;;;;48.08;16.98;;;4.70;85.30;;;;;;4957005;28;20454;-60
2021/03/27 02:41:30;;;;;;;48.22;16.90;;;4.60;85.50;;;;;;4982715;28;20050;-61
2021/03/27 02:44:38;;;;;;;42.15;16.45;;;4.60;85.80;;;;;;4989676;28;20553;-60
2021/03/27 02:47:23;;;;;;;46.75;17.27;;;4.60;86.20;;;;;;4971636;28;20363;-61
2021/03/27 02:49:56;;;;;;;53.45;18.73;;;4.50;86.40;;;;;;5027307;28;20519;-60
2021/03/27 02:52:40;;;;;;;;;;;4.50;86.20;;;;;;5050695;28;20045;-61
2021/03/27 02:55:34;;;;;;;48.63;17.48;;;4.50;86.20;;;;;;5030721;28;19921;-61
2021/03/27 02:58:00;;;;;;;54.17;17.67;;;4.50;86.00;;;;;;5027542;28;20061;-60
2021/03/27 03:00:33;;;;;;;48.17;16.58;;;4.50;86.30;;;;;;5017433;28;20064;-61
2021/03/27 03:03:11;;;;;;;52.05;17.40;;;4.50;86.60;;;;;;5050583;28;20049;-60
2021/03/27 03:05:47;;;;;;;49.17;16.33;;;4.50;86.30;;;;;;5045205;28;20129;-60
2021/03/27 03:08:23;;;;;;;54.78;19.05;;;4.50;86.80;;;;;;5015641;28;20568;-60
2021/03/27 03:11:27;;;;;;;46.50;16.63;;;4.50;87.00;;;;;;5051742;28;20477;-61
2021/03/27 03:14:30;;;;;;;49.53;15.90;;;4.40;86.90;;;;;;5033135;28;20056;-62
2021/03/27 03:17:03;;;;;;;45.78;16.27;;;4.40;87.00;;;;;;5037848;28;20057;-61
2021/03/27 03:19:47;;;;;;;53.22;17.67;;;4.40;87.50;;;;;;5034460;28;20500;-60
2021/03/27 03:22:23;;;;;;;44.83;15.88;;;4.30;87.50;;;;;;5034176;28;20045;-60
2021/03/27 03:25:05;;;;;;;45.88;15.80;;;4.30;87.10;;;;;;5056745;28;20521;-59
2021/03/27 03:27:40;;;;;;;48.13;16.10;;;4.40;87.50;;;;;;5046219;28;20076;-61
2021/03/27 03:30:13;;;;;;;47.40;15.57;;;4.30;87.00;;;;;;5052328;28;20049;-60
2021/03/27 03:32:42;;;;;;;48.28;17.38;;;4.30;87.70;;;;;;5050880;28;20049;-60
2021/03/27 03:35:31;;;;;;;40.33;15.80;;;4.30;88.10;;;;;;5025957;28;20044;-61
2021/03/27 03:38:13;;;;;;;43.63;15.38;;;4.30;88.30;;;;;;5050234;28;20048;-62
2021/03/27 03:40:58;;;;;;;49.93;17.53;;;4.30;88.10;;;;;;5050866;28;20393;-62
2021/03/27 03:43:55;;;;;;;43.17;16.50;;;4.20;88.20;;;;;;5049954;28;20133;-61
2021/03/27 03:46:25;;;;;;;46.47;17.33;;;4.20;87.70;;;;;;5048430;28;20049;-60
2021/03/27 03:49:30;;;;;;;51.83;17.60;;;4.20;88.20;;;;;;5031783;28;20045;-60
2021/03/27 03:52:05;;;;;;;49.97;15.18;;;4.20;88.80;;;;;;5032308;28;20033;-60
2021/03/27 03:54:52;;;;;;;52.97;16.75;;;4.20;88.20;;;;;;5048890;28;20041;-60
2021/03/27 03:57:30;;;;;;;39.78;15.18;;;4.20;88.80;;;;;;5027705;28;21030;-61
2021/03/27 04:00:14;;;;;;;45.92;16.85;;;4.20;88.30;;;;;;5029813;28;20060;-60
2021/03/27 04:02:48;;;;;;;49.45;17.55;;;4.20;89.30;;;;;;5030844;28;20044;-61
2021/03/27 04:05:46;;;;;;;49.22;16.88;;;4.10;88.30;;;;;;5026597;28;20155;-60
2021/03/27 04:08:29;;;;;;;39.78;15.48;;;4.10;89.00;;;;;;5027927;28;20610;-60
2021/03/27 04:11:00;;;;;;;52.08;15.57;;;4.10;89.80;;;;;;5048955;28;20100;-61
2021/03/27 04:13:39;;;;;;;43.05;15.27;;;4.10;89.80;;;;;;5031615;28;20447;-61
2021/03/27 04:16:10;;;;;;;42.53;14.13;;;4.00;89.90;;;;;;5007199;28;20045;-59
2021/03/27 04:18:51;;;;;;;45.72;14.48;;;4.00;89.50;;;;;;5044608;28;20045;-60
2021/03/27 04:21:39;;;;;;;38.78;13.88;;;4.10;90.10;;;;;;5050144;28;20045;-60
2021/03/27 04:24:17;;;;;;;45.08;14.80;;;4.10;90.00;;;;;;5043024;28;20045;-60
2021/03/27 04:26:49;;;;;;;39.80;13.77;;;4.10;90.10;;;;;;5051198;28;20041;-60
2021/03/27 04:29:27;;;;;;;40.63;12.85;;;4.10;90.20;;;;;;5050309;28;20052;-60
2021/03/27 04:32:24;;;;;;;41.13;14.25;;;4.10;90.00;;;;;;5019038;28;20041;-61
2021/03/27 04:35:08;;;;;;;39.22;13.63;;;4.10;90.20;;;;;;5033591;28;20566;-62
2021/03/27 04:38:03;;;;;;;42.88;13.68;;;4.10;90.10;;;;;;5049627;28;20048;-59
2021/03/27 04:40:38;;;;;;;39.00;13.98;;;4.10;90.10;;;;;;4971632;28;20502;-62
2021/03/27 04:43:16;;;;;;;41.70;14.18;;;4.10;90.20;;;;;;4988757;28;20402;-61
2021/03/27 04:45:55;;;;;;;37.40;14.75;;;4.10;90.30;;;;;;4988030;28;20113;-61
2021/03/27 04:48:49;;;;;;;38.25;12.75;;;4.10;90.30;;;;;;4986703;28;20112;-61
2021/03/27 04:51:19;;;;;;;40.05;15.38;;;4.10;90.20;;;;;;4985181;28;20133;-61
2021/03/27 04:53:59;;;;;;;41.38;14.70;;;4.10;90.00;;;;;;4986859;28;20149;-61
2021/03/27 04:56:36;;;;;;;43.45;14.90;;;4.10;90.10;;;;;;4973337;28;20054;-61
2021/03/27 04:59:14;;;;;;;36.60;16.17;;;4.20;90.10;;;;;;4987687;28;20069;-60
2021/03/27 05:01:44;;;;;;;48.50;15.32;;;4.20;89.90;;;;;;4967737;28;20050;-61
2021/03/27 05:04:29;;;;;;;42.47;14.23;;;4.20;90.20;;;;;;4986477;28;20105;-61
2021/03/27 05:07:03;;;;;;;40.58;15.10;;;4.20;90.20;;;;;;4987431;28;20050;-61
2021/03/27 05:09:58;;;;;;;43.95;15.68;;;4.20;90.50;;;;;;4972071;28;20426;-61
2021/03/27 05:12:41;;;;;;;43.08;15.63;;;4.30;90.20;;;;;;4990397;28;20046;-61
2021/03/27 05:15:15;;;;;;;40.45;14.77;;;4.30;90.20;;;;;;4988929;28;20046;-60
2021/03/27 05:17:45;;;;;;;37.58;14.23;;;4.30;90.10;;;;;;5024450;28;20052;-60
2021/03/27 05:20:12;;;;;;;40.15;14.60;;;4.30;90.10;;;;;;5030870;28;20487;-61
2021/03/27 05:22:46;;;;;;;39.40;14.88;;;4.40;90.10;;;;;;5031823;28;20041;-60
2021/03/27 05:25:43;;;;;;;42.25;13.55;;;4.40;90.20;;;;;;5044826;28;20045;-60
2021/03/27 05:28:22;;;;;;;39.88;11.82;;;4.50;90.10;;;;;;5049090;28;20033;-61
2021/03/27 05:30:48;;;;;;;39.53;13.27;;;4.50;90.00;;;;;;5040363;28;20045;-61
2021/03/27 05:33:50;;;;;;;38.00;13.77;;;4.50;90.00;;;;;;5032430;28;20060;-61
2021/03/27 05:36:39;;;;;;;41.90;13.35;;;4.60;89.60;;;;;;5032066;28;20505;-62
2021/03/27 05:39:30;;;;;;;35.80;12.65;;;4.60;89.30;;;;;;5033634;28;20409;-61
2021/03/27 05:42:15;;;;;;;36.95;12.35;;;4.70;89.10;;;;;;5051660;28;20040;-61
2021/03/27 05:44:54;;;;;;;38.80;13.90;;;4.70;88.80;;;;;;5033775;28;20516;-61
2021/03/27 05:47:50;;;;;;;41.65;13.55;;;4.80;88.70;;;;;;5034596;28;20114;-61
2021/03/27 05:50:35;;;;;;;37.42;13.30;;;4.80;88.90;;;;;;5052546;28;20033;-61
2021/03/27 05:53:29;;;;;;;38.60;12.90;;;4.90;88.30;;;;;;5053003;28;20041;-60
2021/03/27 05:56:17;;;;;;;31.52;12.68;;;5.00;88.70;;;;;;5030252;28;20042;-60
2021/03/27 05:59:06;;;;;;;32.05;12.10;;;5.10;88.40;;;;;;5033914;28;20056;-60
2021/03/27 06:01:54;;;;;;;34.25;12.75;;;5.20;88.40;;;;;;5023490;28;20116;-61
2021/03/27 06:05:08;;;;;;;33.75;11.27;;;5.30;87.60;;;;;;5033707;28;20040;-61
2021/03/27 06:07:43;;;;;;;42.00;12.32;;;5.40;87.30;;;;;;4985175;28;20050;-60
2021/03/27 06:10:25;;;;;;;35.13;12.25;;;5.50;86.80;;;;;;4959487;28;20061;-60
2021/03/27 06:13:21;;;;;;;36.70;12.30;;;5.60;86.20;;;;;;4978251;28;20049;-61
2021/03/27 06:16:10;;;;;;;36.75;12.30;;;5.70;86.00;;;;;;4988661;28;20880;-60
2021/03/27 06:19:05;;;;;;;35.17;12.57;;;5.80;85.90;;;;;;4975133;28;20058;-60
2021/03/27 06:22:06;;;;;;;36.45;12.35;;;6.00;85.40;;;;;;4974130;28;20046;-60
2021/03/27 06:24:51;;;;;;;30.83;11.00;;;6.10;84.40;;;;;;4935520;29;20048;-60
2021/03/27 06:27:32;;;;;;;35.22;12.75;;;6.20;84.00;;;;;;4922846;29;20043;-61
2021/03/27 06:30:04;;;;;;;33.83;12.70;;;6.40;83.20;;;;;;4936018;29;20068;-60
2021/03/27 06:33:00;;;;;;;35.75;12.05;;;6.50;83.80;;;;;;4931988;29;20055;-60
2021/03/27 06:35:27;;;;;;;31.83;11.93;;;6.60;82.70;;;;;;4905577;29;20044;-60
2021/03/27 06:38:15;;;;;;;31.35;11.45;;;6.80;82.10;;;;;;4945678;28;20490;-60
2021/03/27 06:41:04;;;;;;;32.13;11.65;;;6.90;82.10;;;;;;4975499;28;20457;-60
2021/03/27 06:43:56;;;;;;;31.15;12.43;;;7.10;81.10;;;;;;4968186;28;20417;-60
2021/03/27 06:46:54;;;;;;;30.75;11.25;;;7.20;81.00;;;;;;4974429;28;20541;-59
2021/03/27 06:49:36;;;;;;;32.03;12.02;;;7.40;80.40;;;;;;4984370;28;20058;-60
2021/03/27 06:52:24;;;;;;;32.80;11.80;;;7.60;80.10;;;;;;4976477;28;20057;-61
2021/03/27 06:55:21;;;;;;;34.38;11.45;;;7.70;79.50;;;;;;4978329;28;20046;-60
2021/03/27 06:58:21;;;;;;;32.38;10.85;;;7.90;79.60;;;;;;4986316;28;20061;-61
2021/03/27 07:00:50;;;;;;;32.25;10.90;;;8.20;78.80;;;;;;5004381;28;20516;-60
2021/03/27 07:04:00;;;;;;;32.67;10.65;;;8.40;78.30;;;;;;5031970;28;20040;-59
2021/03/27 07:06:49;;;;;;;29.88;10.52;;;8.60;77.70;;;;;;5039882;28;20037;-61
2021/03/27 07:09:39;;;;;;;30.33;9.80;;;8.90;76.10;;;;;;5045218;28;20033;-59
2021/03/27 07:12:21;;;;;;;25.88;10.02;;;9.20;74.90;;;;;;5017412;28;20045;-61
2021/03/27 07:15:25;;;;;;;25.92;8.80;;;9.40;74.00;;;;;;5041791;28;20122;-62
2021/03/27 07:18:13;;;;;;;24.23;9.68;;;9.60;72.90;;;;;;5035195;28;20106;-60
2021/03/27 07:21:18;;;;;;;24.85;9.38;;;9.80;72.60;;;;;;5052318;28;20048;-60
2021/03/27 07:23:57;;;;;;;25.58;10.82;;;10.00;71.70;;;;;;5033499;28;20060;-59
2021/03/27 07:26:39;;;;;;;29.08;9.93;;;10.10;71.10;;;;;;5030230;28;20108;-59
2021/03/27 07:29:42;;;;;;;23.48;9.25;;;10.30;71.60;;;;;;5052082;28;20396;-60
2021/03/27 07:32:14;;;;;;;22.58;8.85;;;10.40;70.90;;;;;;5032265;28;20053;-59
2021/03/27 07:34:47;;;;;;;26.15;9.23;;;10.60;70.10;;;;;;5043437;28;20125;-59
2021/03/27 07:37:27;;;;;;;24.42;9.02;;;10.70;69.40;;;;;;5046548;28;20064;-61
2021/03/27 07:40:09;;;;;;;26.13;9.68;;;10.90;68.40;;;;;;5027294;28;20064;-60
2021/03/27 07:42:49;;;;;;;24.23;9.50;;;11.00;68.70;;;;;;5041973;28;20045;-60
2021/03/27 07:45:24;;;;;;;27.08;8.68;;;11.20;68.20;;;;;;5032692;28;20071;-62
2021/03/27 07:48:37;;;;;;;24.23;8.40;;;11.30;67.80;;;;;;5042899;28;20042;-59
2021/03/27 07:51:45;;;;;;;20.60;9.45;;;11.40;67.90;;;;;;5013731;28;20045;-61
2021/03/27 07:54:37;;;;;;;30.85;9.77;;;11.70;67.10;;;;;;4904047;29;20495;-60
2021/03/27 07:57:41;;;;;;;22.08;8.20;;;11.80;66.50;;;;;;4891103;29;20218;-62
2021/03/27 08:00:26;;;;;;;23.98;9.70;;;12.00;66.10;;;;;;4893139;29;20745;-61
2021/03/27 08:03:13;;;;;;;18.58;6.75;;;12.10;66.40;;;;;;4889505;29;20489;-61
2021/03/27 08:06:10;;;;;;;23.08;9.48;;;12.20;65.10;;;;;;4891850;29;20057;-61
2021/03/27 08:09:00;;;;;;;24.85;9.40;;;12.40;65.20;;;;;;4892598;29;20048;-60
2021/03/27 08:11:39;;;;;;;21.63;6.85;;;12.60;64.00;;;;;;4894367;29;20147;-61
2021/03/27 08:14:43;;;;;;;18.40;7.22;;;12.70;63.30;;;;;;4894562;29;20437;-60
2021/03/27 08:17:35;;;;;;;17.30;7.55;;;12.80;63.10;;;;;;4841316;29;20440;-62
2021/03/27 08:20:25;;;;;;;17.13;6.18;;;12.90;62.20;;;;;;4838521;29;20080;-61
2021/03/27 08:23:21;;;;;;;16.10;5.60;;;13.00;61.80;;;;;;4837919;29;20065;-60
2021/03/27 08:26:05;;;;;;;14.30;6.53;;;13.20;61.00;;;;;;4848614;29;20051;-60
2021/03/27 08:28:51;;;;;;;15.40;6.32;;;13.30;60.90;;;;;;4841410;29;20045;-61
2021/03/27 08:32:01;;;;;;;17.67;6.57;;;13.40;60.30;;;;;;4880367;29;20541;-63
2021/03/27 08:35:06;;;;;;;18.70;6.85;;;13.50;60.10;;;;;;4917002;29;20103;-62
2021/03/27 08:37:58;;;;;;;12.85;5.80;;;13.60;60.60;;;;;;4891611;29;20531;-60
2021/03/27 08:41:11;;;;;;;14.33;6.23;;;13.80;60.20;;;;;;4892770;29;20069;-58
2021/03/27 08:44:05;;;;;;;15.07;5.18;;;13.90;59.10;;;;;;4858725;29;20474;-59
2021/03/27 08:46:50;;;;;;;19.83;6.97;;;14.10;58.70;;;;;;4844436;29;20057;-59
2021/03/27 08:49:42;;;;;;;18.27;5.93;;;14.20;57.90;;;;;;4868656;29;20081;-60
2021/03/27 08:52:37;;;;;;;13.55;5.63;;;14.30;57.60;;;;;;4867982;29;20061;-60
2021/03/27 08:55:23;;;;;;;15.32;6.07;;;14.40;57.90;;;;;;4908456;29;20103;-58
2021/03/27 08:57:55;;;;;;;18.88;6.45;;;14.60;57.30;;;;;;4910105;29;20059;-60
2021/03/27 09:00:45;;;;;;;20.02;6.22;;;14.70;56.60;;;;;;4909637;29;20053;-60
2021/03/27 09:03:48;;;;;;;17.23;6.40;;;14.90;56.50;;;;;;4905853;29;20070;-61
2021/03/27 09:06:31;;;;;;;17.15;6.38;;;15.00;56.40;;;;;;4910028;29;20488;-60
2021/03/27 09:09:18;;;;;;;23.38;7.75;;;15.10;56.10;;;;;;4903349;29;20040;-60
2021/03/27 09:12:04;;;;;;;16.00;6.22;;;15.20;56.50;;;;;;4933317;28;20047;-60
2021/03/27 09:14:53;;;;;;;19.52;7.80;;;15.30;56.10;;;;;;4928806;29;20412;-59
2021/03/27 09:17:37;;;;;;;18.83;6.40;;;15.50;54.70;;;;;;4951332;29;20062;-61
2021/03/27 09:20:06;;;;;;;18.48;6.20;;;15.60;54.40;;;;;;4981345;28;20241;-60
2021/03/27 09:22:56;;;;;;;13.60;5.85;;;15.60;54.20;;;;;;5036643;28;20704;-60
2021/03/27 09:25:51;;;;;;;18.15;6.25;;;15.70;54.40;;;;;;5038206;28;20389;-59
2021/03/27 09:28:30;;;;;;;14.30;6.57;;;15.80;54.20;;;;;;5025665;28;20051;-60
2021/03/27 09:31:02;;;;;;;15.50;5.20;;;15.90;53.30;;;;;;5020835;28;20056;-60
2021/03/27 09:33:54;;;;;;;15.07;5.07;;;16.00;53.00;;;;;;5036217;28;20055;-60
2021/03/27 09:36:31;;;;;;;11.30;4.90;;;16.10;52.60;;;;;;5026262;28;20435;-60
2021/03/27 09:39:19;;;;;;;13.27;5.45;;;16.20;52.70;;;;;;5051098;28;20454;-64
2021/03/27 09:42:10;;;;;;;13.13;5.10;;;16.30;52.80;;;;;;5029972;28;20052;-60
2021/03/27 09:45:04;;;;;;;14.45;6.88;;;16.40;52.70;;;;;;5040050;28;20369;-60
2021/03/27 09:47:49;;;;;;;14.45;5.75;;;16.50;52.80;;;;;;5041306;28;20397;-60
2021/03/27 09:50:45;;;;;;;15.95;5.88;;;16.60;52.40;;;;;;5047138;28;20044;-59
2021/03/27 09:53:41;;;;;;;12.80;5.10;;;16.80;52.40;;;;;;5040603;28;20057;-60
2021/03/27 09:56:23;;;;;;;13.00;5.15;;;16.90;52.30;;;;;;5047317;28;20140;-61
2021/03/27 09:59:18;;;;;;;13.57;5.78;;;17.10;51.60;;;;;;5040862;28;20056;-59
2021/03/27 10:02:17;;;;;;;12.95;5.50;;;17.30;51.20;;;;;;5045366;28;20051;-59
2021/03/27 10:05:17;;;;;;;12.15;5.32;;;17.50;50.60;;;;;;5026640;28;20067;-59
2021/03/27 10:08:02;;;;;;;13.80;4.97;;;17.60;50.60;;;;;;5048381;28;20096;-59
2021/03/27 10:11:05;;;;;;;13.35;5.13;;;17.70;50.40;;;;;;5040402;28;20037;-59
2021/03/27 10:13:50;;;;;;;9.85;5.28;;;17.80;49.60;;;;;;5025090;28;20056;-61
2021/03/27 10:16:35;;;;;;;11.07;4.90;;;17.90;49.70;;;;;;5019011;28;20053;-60
2021/03/27 10:19:13;;;;;;;9.10;4.78;;;17.90;50.00;;;;;;5032199;28;20061;-61
2021/03/27 10:21:58;;;;;;;12.13;4.53;;;18.00;49.50;;;;;;5035465;28;20053;-61
2021/03/27 10:24:33;;;;;;;12.55;4.72;;;18.20;49.40;;;;;;5013475;28;20624;-61
2021/03/27 10:27:21;;;;;;;12.57;4.60;;;18.40;48.70;;;;;;5029948;28;20056;-61
2021/03/27 10:30:09;;;;;;;10.57;4.60;;;18.60;48.60;;;;;;5023406;28;20428;-62
2021/03/27 10:32:53;;;;;;;11.95;4.90;;;18.70;48.20;;;;;;5045958;28;20037;-62
2021/03/27 10:35:50;;;;;;;10.07;4.88;;;18.60;47.70;;;;;;5032063;28;20045;-62
2021/03/27 10:38:47;;;;;;;8.00;4.22;;;18.60;48.60;;;;;;5032218;28;20056;-61
2021/03/27 10:41:43;;;;;;;13.75;4.45;;;18.70;48.00;;;;;;5027388;28;20136;-61
2021/03/27 10:44:32;;;;;;;9.70;4.30;;;18.70;48.00;;;;;;5038562;28;20045;-62
2021/03/27 10:47:19;;;;;;;11.48;4.95;;;18.80;47.80;;;;;;5047841;28;20036;-62
2021/03/27 10:50:11;;;;;;;9.05;3.75;;;18.90;47.60;;;;;;5031373;28;20041;-62
2021/03/27 10:52:46;;;;;;;10.10;4.45;;;19.10;47.90;;;;;;5015867;28;20044;-64
2021/03/27 10:55:39;;;;;;;10.77;4.45;;;19.20;47.10;;;;;;5015895;28;20415;-62
2021/03/27 10:58:18;;;;;;;9.50;4.20;;;19.20;47.30;;;;;;5015138;28;20057;-60
2021/03/27 11:01:06;;;;;;;11.95;4.85;;;19.20;47.00;;;;;;5032952;28;20042;-61
2021/03/27 11:03:41;;;;;;;11.82;5.03;;;19.30;47.00;;;;;;5045969;28;20048;-63
2021/03/27 11:07:05;;;;;;;11.82;4.93;;;19.30;46.80;;;;;;5030021;28;20085;-60
2021/03/27 11:10:04;;;;;;;19.30;5.45;;;19.30;46.90;;;;;;4985562;28;20042;-60
2021/03/27 11:13:09;;;;;;;11.55;4.57;;;19.40;46.60;;;;;;4983549;28;20046;-63
2021/03/27 11:15:57;;;;;;;10.10;4.95;;;19.60;46.80;;;;;;4928231;29;20055;-61
2021/03/27 11:18:51;;;;;;;10.85;5.13;;;19.90;46.10;;;;;;4927977;29;20052;-62
2021/03/27 11:21:26;;;;;;;10.45;4.45;;;19.90;45.60;;;;;;4927703;29;20063;-61
2021/03/27 11:24:24;;;;;;;12.93;5.32;;;19.90;45.10;;;;;;4922218;29;20051;-61
2021/03/27 11:26:51;;;;;;;9.50;4.25;;;19.90;44.70;;;;;;4928212;29;20459;-60
2021/03/27 11:29:56;;;;;;;9.55;4.18;;;19.90;45.40;;;;;;4911961;29;20083;-60
2021/03/27 11:32:49;;;;;;;10.90;4.63;;;20.00;45.60;;;;;;4912735;29;20542;-61
2021/03/27 11:35:35;;;;;;;12.82;5.35;;;20.00;44.80;;;;;;4913295;29;20059;-61
2021/03/27 11:38:36;;;;;;;11.73;5.05;;;20.10;44.30;;;;;;4927800;29;20044;-61
2021/03/27 11:41:05;;;;;;;11.85;4.90;;;20.20;44.50;;;;;;4969479;28;20061;-61
2021/03/27 11:43:40;;;;;;;14.60;5.18;;;20.20;44.50;;;;;;4966609;28;20556;-58
2021/03/27 11:46:07;;;;;;;11.63;5.18;;;20.30;44.60;;;;;;4982550;28;20051;-58
2021/03/27 11:48:47;;;;;;;15.57;6.10;;;20.40;44.70;;;;;;4988241;28;20034;-58
2021/03/27 11:51:27;;;;;;;10.60;4.53;;;20.40;44.30;;;;;;4976617;28;20065;-59
2021/03/27 11:54:47;;;;;;;10.67;4.80;;;20.50;44.70;;;;;;5045201;28;20152;-60
2021/03/27 11:57:45;;;;;;;13.13;4.93;;;20.70;44.50;;;;;;5047251;28;20300;-58
2021/03/27 12:01:02;;;;;;;9.90;4.80;;;20.90;43.50;;;;;;5035967;28;20527;-59
2021/03/27 12:03:47;;;;;;;10.93;5.50;;;21.10;43.60;;;;;;5045529;28;20045;-58
2021/03/27 12:06:30;;;;;;;8.25;5.00;;;21.10;43.60;;;;;;5016932;28;20748;-58
2021/03/27 12:09:22;;;;;;;;;;;21.20;43.20;;;;;;5023575;28;20037;-58
2021/03/27 12:11:51;;;;;;;10.77;4.47;;;21.20;43.50;;;;;;4960090;28;19933;-59
2021/03/27 12:14:44;;;;;;;11.57;4.97;;;21.20;43.10;;;;;;4958190;28;20069;-64
2021/03/27 12:17:35;;;;;;;8.85;4.38;;;21.30;43.40;;;;;;4966732;28;20062;-63
2021/03/27 12:20:24;;;;;;;11.00;4.20;;;21.30;43.10;;;;;;4966169;28;20046;-61
2021/03/27 12:23:28;;;;;;;11.15;5.15;;;21.00;44.00;;;;;;4949488;28;20799;-61
2021/03/27 12:26:32;;;;;;;11.10;5.13;;;21.10;43.70;;;;;;4965313;28;20057;-60
2021/03/27 12:29:19;;;;;;;9.98;4.57;;;21.20;43.70;;;;;;4971910;28;20097;-61
2021/03/27 12:31:56;;;;;;;8.82;4.93;;;21.50;43.50;;;;;;4964614;28;20054;-60
2021/03/27 12:34:48;;;;;;;10.32;4.63;;;21.80;42.30;;;;;;4961023;28;20051;-61
2021/03/27 12:37:26;;;;;;;11.23;5.35;;;21.90;42.60;;;;;;4900967;29;20059;-61
2021/03/27 12:40:16;;;;;;;10.07;4.85;;;22.20;42.10;;;;;;4908724;29;20051;-62
2021/03/27 12:42:47;;;;;;;11.85;5.10;;;22.60;41.50;;;;;;4907815;29;20056;-62
2021/03/27 12:45:48;;;;;;;12.10;6.18;;;23.10;41.20;;;;;;4906932;29;20056;-61
2021/03/27 12:48:36;;;;;;;10.18;4.38;;;23.60;40.10;;;;;;4907792;28;20058;-62
2021/03/27 12:51:40;;;;;;;12.50;4.88;;;23.90;39.60;;;;;;4954838;28;20051;-58
2021/03/27 12:54:32;;;;;;;8.52;4.32;;;24.10;39.20;;;;;;4946179;29;20081;-62
2021/03/27 12:57:16;;;;;;;8.27;3.87;;;24.10;38.80;;;;;;4933707;29;20427;-60
2021/03/27 13:00:01;;;;;;;11.13;3.70;;;23.90;39.00;;;;;;4949402;29;20074;-61
2021/03/27 13:03:03;;;;;;;11.48;3.95;;;23.80;39.30;;;;;;4951034;29;20058;-60
2021/03/27 13:06:00;;;;;;;11.40;4.13;;;23.60;39.40;;;;;;4948262;29;20132;-60
2021/03/27 13:09:11;;;;;;;9.32;2.58;;;23.40;39.90;;;;;;4946967;29;20056;-62
2021/03/27 13:11:40;;;;;;;6.88;2.20;;;22.80;39.30;;;;;;4943338;29;20062;-62
2021/03/27 13:14:40;;;;;;;8.02;3.08;;;22.40;39.10;;;;;;4946862;28;20062;-61
2021/03/27 13:17:17;;;;;;;4.57;2.15;;;22.10;39.90;;;;;;4986794;28;20050;-60
2021/03/27 13:19:54;;;;;;;5.13;2.30;;;21.90;40.40;;;;;;4990897;28;20054;-63
2021/03/27 13:22:37;;;;;;;6.78;2.40;;;21.70;41.00;;;;;;4972032;28;20054;-61
2021/03/27 13:25:13;;;;;;;7.97;2.72;;;21.30;41.10;;;;;;4970035;28;20066;-61
2021/03/27 13:27:52;;;;;;;4.35;2.22;;;21.20;41.90;;;;;;4988653;28;20556;-61
2021/03/27 13:30:39;;;;;;;3.78;2.50;;;21.60;41.90;;;;;;4982128;28;20432;-61
2021/03/27 13:33:18;;;;;;;4.85;2.15;;;22.30;41.10;;;;;;5036890;28;20064;-60
2021/03/27 13:35:52;;;;;;;7.88;2.92;;;23.00;39.70;;;;;;5053272;28;20390;-61
2021/03/27 13:38:32;;;;;;;5.32;2.67;;;23.20;38.70;;;;;;5034226;28;20122;-61
2021/03/27 13:41:07;;;;;;;6.07;3.13;;;23.50;38.90;;;;;;5044159;28;20053;-63
2021/03/27 13:43:41;;;;;;;4.05;2.38;;;24.00;38.10;;;;;;5021498;28;20053;-61
2021/03/27 13:46:27;;;;;;;4.82;2.08;;;24.50;37.30;;;;;;5061971;28;20055;-62
2021/03/27 13:49:13;;;;;;;5.78;2.17;;;25.00;36.60;;;;;;5039794;28;20762;-58
2021/03/27 13:51:49;;;;;;;3.03;1.85;;;25.50;35.70;;;;;;5040004;28;20393;-58
2021/03/27 13:54:22;;;;;;;7.28;2.28;;;25.30;35.90;;;;;;5009800;28;20053;-58
2021/03/27 13:57:21;;;;;;;5.63;2.00;;;25.90;35.30;;;;;;5044808;28;20060;-59
2021/03/27 14:00:17;;;;;;;6.72;2.10;;;26.40;34.40;;;;;;5041591;28;20509;-59
2021/03/27 14:02:51;;;;;;;4.20;1.90;;;26.50;34.30;;;;;;5039339;28;20128;-62
2021/03/27 14:05:20;;;;;;;4.15;2.20;;;26.70;34.10;;;;;;5040704;28;20055;-59
2021/03/27 14:08:11;;;;;;;4.38;1.65;;;26.80;34.40;;;;;;5035440;28;20064;-61
2021/03/27 14:10:41;;;;;;;5.55;2.42;;;26.80;34.10;;;;;;5044418;28;20033;-61
2021/03/27 14:13:17;;;;;;;4.75;2.67;;;26.50;34.10;;;;;;5022760;28;20044;-63